Yorktown Heights, New York
Current Conditions -  °F | °C
As of 3:56 PM on Friday 19 Dec 2014 (Local Time) from KHPN Reporting Station
Broken Clouds Broken Clouds  
Wind Chill: 25°   Ceiling: 3500
Heat Index: 34°   Visibility: 10mi
Dew Point: 20°   Wind: 12mph
Humidity: 56%   Direction: 320°NW
Pressure: 30.03"   Gusts: 18mph
Location:  41.27°N, 73.78°W
Report Text: KHPN 192056Z 32010G16KT 10SM BKN035 01/M07 A3003 RMK AO2 SLP177 T00111067 53013
Loading
Personal Weather Stations






























Interactive Weather Map New forecast layout! Learn more

10-Day Weather Forecast

Advertisements
Track Severe Weather on mobile